sensor_id;sensor_type;location;lat;lon;timestamp;pressure;altitude;pressure_sealevel;temperature;humidity
11349;BME280;5729;43.570;27.826;2023-04-25T00:01:59;98469.50;;;12.22;100.00
11349;BME280;5729;43.570;27.826;2023-04-25T00:04:25;98461.00;;;12.17;100.00
11349;BME280;5729;43.570;27.826;2023-04-25T00:06:52;98451.72;;;12.14;100.00
11349;BME280;5729;43.570;27.826;2023-04-25T00:09:18;98456.78;;;12.26;100.00
11349;BME280;5729;43.570;27.826;2023-04-25T00:11:43;98456.38;;;12.21;100.00
11349;BME280;5729;43.570;27.826;2023-04-25T00:14:09;98454.47;;;12.35;100.00
11349;BME280;5729;43.570;27.826;2023-04-25T00:16:35;98454.47;;;12.32;100.00
11349;BME280;5729;43.570;27.826;2023-04-25T00:19:03;98454.13;;;12.41;100.00
11349;BME280;5729;43.570;27.826;2023-04-25T00:21:30;98446.00;;;12.37;100.00
11349;BME280;5729;43.570;27.826;2023-04-25T00:23:57;98436.72;;;12.27;100.00
11349;BME280;5729;43.570;27.826;2023-04-25T00:26:22;98440.94;;;12.32;100.00
11349;BME280;5729;43.570;27.826;2023-04-25T00:28:48;98446.38;;;12.35;100.00
11349;BME280;5729;43.570;27.826;2023-04-25T00:31:14;98427.81;;;12.30;100.00
11349;BME280;5729;43.570;27.826;2023-04-25T00:33:39;98427.06;;;12.26;100.00
11349;BME280;5729;43.570;27.826;2023-04-25T00:36:05;98428.59;;;12.27;100.00
11349;BME280;5729;43.570;27.826;2023-04-25T00:38:31;98429.38;;;12.28;100.00
11349;BME280;5729;43.570;27.826;2023-04-25T00:40:56;98433.63;;;12.25;100.00
11349;BME280;5729;43.570;27.826;2023-04-25T00:43:26;98425.13;;;12.23;100.00
11349;BME280;5729;43.570;27.826;2023-04-25T00:45:52;98434.41;;;12.29;100.00
11349;BME280;5729;43.570;27.826;2023-04-25T00:48:20;98429.38;;;12.31;100.00
11349;BME280;5729;43.570;27.826;2023-04-25T00:50:52;98422.41;;;12.23;100.00
11349;BME280;5729;43.570;27.826;2023-04-25T00:53:19;98416.22;;;12.16;100.00
11349;BME280;5729;43.570;27.826;2023-04-25T00:55:45;98410.00;;;12.01;100.00
11349;BME280;5729;43.570;27.826;2023-04-25T00:58:10;98409.63;;;11.95;100.00
11349;BME280;5729;43.570;27.826;2023-04-25T01:00:36;98406.53;;;11.93;100.00
11349;BME280;5729;43.570;27.826;2023-04-25T01:03:01;98408.41;;;11.82;100.00
11349;BME280;5729;43.570;27.826;2023-04-25T01:05:29;98412.94;;;11.68;100.00
11349;BME280;5729;43.570;27.826;2023-04-25T01:07:54;98409.44;;;11.56;100.00
11349;BME280;5729;43.570;27.826;2023-04-25T01:10:20;98411.72;;;11.51;100.00
11349;BME280;5729;43.570;27.826;2023-04-25T01:12:46;98410.16;;;11.46;100.00
11349;BME280;5729;43.570;27.826;2023-04-25T01:15:12;98411.63;;;11.33;100.00
11349;BME280;5729;43.570;27.826;2023-04-25T01:17:37;98416.22;;;11.29;100.00
11349;BME280;5729;43.570;27.826;2023-04-25T01:20:04;98411.63;;;11.40;100.00
11349;BME280;5729;43.570;27.826;2023-04-25T01:22:31;98404.31;;;11.37;100.00
11349;BME280;5729;43.570;27.826;2023-04-25T01:24:57;98398.94;;;11.41;100.00
11349;BME280;5729;43.570;27.826;2023-04-25T01:27:23;98402.81;;;11.43;100.00
11349;BME280;5729;43.570;27.826;2023-04-25T01:29:49;98393.53;;;11.37;100.00
11349;BME280;5729;43.570;27.826;2023-04-25T01:32:15;98388.88;;;11.34;100.00
11349;BME280;5729;43.570;27.826;2023-04-25T01:34:41;98396.66;;;11.46;100.00
11349;BME280;5729;43.570;27.826;2023-04-25T01:37:06;98389.69;;;11.42;100.00
11349;BME280;5729;43.570;27.826;2023-04-25T01:39:32;98381.97;;;11.40;100.00
11349;BME280;5729;43.570;27.826;2023-04-25T01:41:59;98385.06;;;11.39;100.00
11349;BME280;5729;43.570;27.826;2023-04-25T01:44:25;98385.44;;;11.41;100.00
11349;BME280;5729;43.570;27.826;2023-04-25T01:46:51;98371.94;;;11.41;100.00
11349;BME280;5729;43.570;27.826;2023-04-25T01:49:16;98366.19;;;11.42;100.00
11349;BME280;5729;43.570;27.826;2023-04-25T01:51:42;98363.47;;;11.39;100.00
11349;BME280;5729;43.570;27.826;2023-04-25T01:54:08;98360.81;;;11.46;100.00
11349;BME280;5729;43.570;27.826;2023-04-25T01:56:37;98374.31;;;11.53;100.00
11349;BME280;5729;43.570;27.826;2023-04-25T01:59:04;98372.03;;;11.55;100.00
11349;BME280;5729;43.570;27.826;2023-04-25T02:01:30;98361.59;;;11.50;100.00
11349;BME280;5729;43.570;27.826;2023-04-25T02:03:55;98360.44;;;11.54;100.00
11349;BME280;5729;43.570;27.826;2023-04-25T02:06:21;98359.72;;;11.61;100.00
11349;BME280;5729;43.570;27.826;2023-04-25T02:08:46;98355.88;;;11.62;100.00
11349;BME280;5729;43.570;27.826;2023-04-25T02:11:11;98344.25;;;11.51;100.00
11349;BME280;5729;43.570;27.826;2023-04-25T02:13:37;98341.94;;;11.53;100.00
11349;BME280;5729;43.570;27.826;2023-04-25T02:16:02;98341.91;;;11.46;100.00
11349;BME280;5729;43.570;27.826;2023-04-25T02:18:28;98338.06;;;11.47;100.00
11349;BME280;5729;43.570;27.826;2023-04-25T02:20:53;98329.97;;;11.43;100.00
11349;BME280;5729;43.570;27.826;2023-04-25T02:23:19;98340.78;;;11.50;100.00
11349;BME280;5729;43.570;27.826;2023-04-25T02:25:45;98338.84;;;11.47;100.00
11349;BME280;5729;43.570;27.826;2023-04-25T02:28:11;98325.28;;;11.33;100.00
11349;BME280;5729;43.570;27.826;2023-04-25T02:30:36;98334.94;;;11.41;100.00
11349;BME280;5729;43.570;27.826;2023-04-25T02:33:02;98329.97;;;11.43;100.00
11349;BME280;5729;43.570;27.826;2023-04-25T02:35:27;98335.34;;;11.40;100.00
11349;BME280;5729;43.570;27.826;2023-04-25T02:37:53;98332.25;;;11.38;100.00
11349;BME280;5729;43.570;27.826;2023-04-25T02:40:18;98327.63;;;11.38;100.00
11349;BME280;5729;43.570;27.826;2023-04-25T02:42:44;98334.13;;;11.30;100.00
11349;BME280;5729;43.570;27.826;2023-04-25T02:45:11;98326.03;;;11.26;100.00
11349;BME280;5729;43.570;27.826;2023-04-25T02:47:36;98330.28;;;11.27;100.00
11349;BME280;5729;43.570;27.826;2023-04-25T02:50:03;98320.28;;;11.28;100.00
11349;BME280;5729;43.570;27.826;2023-04-25T02:52:28;98321.78;;;11.29;100.00
11349;BME280;5729;43.570;27.826;2023-04-25T02:54:54;98313.69;;;11.22;100.00
11349;BME280;5729;43.570;27.826;2023-04-25T02:57:19;98304.78;;;11.14;100.00
11349;BME280;5729;43.570;27.826;2023-04-25T02:59:45;98305.56;;;11.15;100.00
11349;BME280;5729;43.570;27.826;2023-04-25T03:02:10;98304.03;;;11.14;100.00
11349;BME280;5729;43.570;27.826;2023-04-25T03:04:36;98293.59;;;11.09;100.00
11349;BME280;5729;43.570;27.826;2023-04-25T03:07:01;98300.16;;;11.11;100.00
11349;BME280;5729;43.570;27.826;2023-04-25T03:09:27;98300.53;;;11.10;100.00
11349;BME280;5729;43.570;27.826;2023-04-25T03:11:53;98309.41;;;11.17;100.00
11349;BME280;5729;43.570;27.826;2023-04-25T03:14:18;98311.72;;;11.19;100.00
11349;BME280;5729;43.570;27.826;2023-04-25T03:16:43;98311.72;;;11.19;100.00
11349;BME280;5729;43.570;27.826;2023-04-25T03:19:09;98310.97;;;11.18;100.00
11349;BME280;5729;43.570;27.826;2023-04-25T03:21:35;98314.09;;;11.24;100.00
11349;BME280;5729;43.570;27.826;2023-04-25T03:24:03;98310.97;;;11.15;100.00
11349;BME280;5729;43.570;27.826;2023-04-25T03:26:28;98307.13;;;11.23;100.00
11349;BME280;5729;43.570;27.826;2023-04-25T03:28:54;98309.81;;;11.19;100.00
11349;BME280;5729;43.570;27.826;2023-04-25T03:31:20;98309.84;;;11.23;100.00
11349;BME280;5729;43.570;27.826;2023-04-25T03:33:45;98311.00;;;11.22;100.00
11349;BME280;5729;43.570;27.826;2023-04-25T03:36:11;98305.59;;;11.22;100.00
11349;BME280;5729;43.570;27.826;2023-04-25T03:38:36;98293.63;;;11.16;100.00
11349;BME280;5729;43.570;27.826;2023-04-25T03:41:02;98278.59;;;11.15;100.00
11349;BME280;5729;43.570;27.826;2023-04-25T03:43:28;98288.63;;;11.18;100.00
11349;BME280;5729;43.570;27.826;2023-04-25T03:45:53;98285.59;;;11.26;100.00
11349;BME280;5729;43.570;27.826;2023-04-25T03:48:19;98286.72;;;11.25;100.00
11349;BME280;5729;43.570;27.826;2023-04-25T03:50:47;98279.41;;;11.22;100.00
11349;BME280;5729;43.570;27.826;2023-04-25T03:53:12;98279.75;;;11.17;100.00
11349;BME280;5729;43.570;27.826;2023-04-25T03:55:38;98270.56;;;11.25;100.00
11349;BME280;5729;43.570;27.826;2023-04-25T03:58:03;98273.25;;;11.29;100.00
11349;BME280;5729;43.570;27.826;2023-04-25T04:00:28;98272.13;;;11.37;100.00
11349;BME280;5729;43.570;27.826;2023-04-25T04:02:54;98281.00;;;11.41;100.00
11349;BME280;5729;43.570;27.826;2023-04-25T04:05:19;98276.00;;;11.40;100.00
11349;BME280;5729;43.570;27.826;2023-04-25T04:07:45;98270.22;;;11.38;100.00
11349;BME280;5729;43.570;27.826;2023-04-25T04:10:12;98278.28;;;11.41;100.00
11349;BME280;5729;43.570;27.826;2023-04-25T04:12:38;98274.06;;;11.44;100.00
11349;BME280;5729;43.570;27.826;2023-04-25T04:15:04;98269.09;;;11.49;100.00
11349;BME280;5729;43.570;27.826;2023-04-25T04:17:31;98274.47;;;11.49;100.00
11349;BME280;5729;43.570;27.826;2023-04-25T04:19:57;98289.91;;;11.52;100.00
11349;BME280;5729;43.570;27.826;2023-04-25T04:22:22;98274.50;;;11.56;100.00
11349;BME280;5729;43.570;27.826;2023-04-25T04:24:48;98285.66;;;11.51;100.00
11349;BME280;5729;43.570;27.826;2023-04-25T04:27:18;98285.28;;;11.56;100.00
11349;BME280;5729;43.570;27.826;2023-04-25T04:29:47;98288.78;;;11.68;100.00
11349;BME280;5729;43.570;27.826;2023-04-25T04:32:13;98296.13;;;11.71;100.00
11349;BME280;5729;43.570;27.826;2023-04-25T04:34:39;98283.00;;;11.69;100.00
11349;BME280;5729;43.570;27.826;2023-04-25T04:37:05;98287.31;;;11.88;100.00
11349;BME280;5729;43.570;27.826;2023-04-25T04:39:32;98280.38;;;11.94;100.00
11349;BME280;5729;43.570;27.826;2023-04-25T04:41:58;98281.94;;;12.02;100.00
11349;BME280;5729;43.570;27.826;2023-04-25T04:44:24;98283.47;;;12.10;100.00
11349;BME280;5729;43.570;27.826;2023-04-25T04:46:50;98283.50;;;12.17;100.00
11349;BME280;5729;43.570;27.826;2023-04-25T04:49:16;98283.88;;;12.26;100.00
11349;BME280;5729;43.570;27.826;2023-04-25T04:51:42;98275.78;;;12.26;100.00
11349;BME280;5729;43.570;27.826;2023-04-25T04:54:09;98281.94;;;12.30;100.00
11349;BME280;5729;43.570;27.826;2023-04-25T04:56:35;98286.19;;;12.35;100.00
11349;BME280;5729;43.570;27.826;2023-04-25T04:59:00;98271.13;;;12.38;100.00
11349;BME280;5729;43.570;27.826;2023-04-25T05:01:28;98270.38;;;12.41;100.00
11349;BME280;5729;43.570;27.826;2023-04-25T05:03:55;98256.81;;;12.44;100.00
11349;BME280;5729;43.570;27.826;2023-04-25T05:06:25;98249.47;;;12.55;100.00
11349;BME280;5729;43.570;27.826;2023-04-25T05:08:51;98254.50;;;12.64;100.00
11349;BME280;5729;43.570;27.826;2023-04-25T05:11:17;98250.63;;;12.68;100.00
11349;BME280;5729;43.570;27.826;2023-04-25T05:13:43;98256.38;;;12.81;100.00
11349;BME280;5729;43.570;27.826;2023-04-25T05:16:08;98255.56;;;12.91;100.00
11349;BME280;5729;43.570;27.826;2023-04-25T05:18:34;98248.19;;;13.02;100.00
11349;BME280;5729;43.570;27.826;2023-04-25T05:21:00;98247.81;;;13.07;100.00
11349;BME280;5729;43.570;27.826;2023-04-25T05:23:25;98253.94;;;13.12;100.00
11349;BME280;5729;43.570;27.826;2023-04-25T05:25:53;98255.88;;;13.22;100.00
11349;BME280;5729;43.570;27.826;2023-04-25T05:28:18;98246.91;;;13.39;100.00
11349;BME280;5729;43.570;27.826;2023-04-25T05:30:44;98241.81;;;13.48;100.00
11349;BME280;5729;43.570;27.826;2023-04-25T05:33:09;98240.22;;;13.61;100.00
11349;BME280;5729;43.570;27.826;2023-04-25T05:35:35;98238.19;;;13.72;100.00
11349;BME280;5729;43.570;27.826;2023-04-25T05:38:00;98233.53;;;13.76;100.00
11349;BME280;5729;43.570;27.826;2023-04-25T05:40:25;98228.81;;;13.88;100.00
11349;BME280;5729;43.570;27.826;2023-04-25T05:42:51;98237.19;;;14.04;100.00
11349;BME280;5729;43.570;27.826;2023-04-25T05:45:17;98245.69;;;14.09;100.00
11349;BME280;5729;43.570;27.826;2023-04-25T05:47:42;98244.84;;;14.12;100.00
11349;BME280;5729;43.570;27.826;2023-04-25T05:50:08;98242.13;;;14.16;100.00
11349;BME280;5729;43.570;27.826;2023-04-25T05:52:33;98242.47;;;14.22;100.00
11349;BME280;5729;43.570;27.826;2023-04-25T05:54:59;98236.22;;;14.28;100.00
11349;BME280;5729;43.570;27.826;2023-04-25T05:57:26;98231.16;;;14.30;100.00
11349;BME280;5729;43.570;27.826;2023-04-25T05:59:52;98232.63;;;14.38;100.00
11349;BME280;5729;43.570;27.826;2023-04-25T06:02:19;98225.66;;;14.44;100.00
11349;BME280;5729;43.570;27.826;2023-04-25T06:04:46;98220.84;;;14.59;100.00
11349;BME280;5729;43.570;27.826;2023-04-25T06:07:11;98228.91;;;14.66;100.00
11349;BME280;5729;43.570;27.826;2023-04-25T06:09:37;98225.72;;;14.75;100.00
11349;BME280;5729;43.570;27.826;2023-04-25T06:12:05;98224.06;;;14.84;100.00
11349;BME280;5729;43.570;27.826;2023-04-25T06:14:30;98224.31;;;14.97;100.00
11349;BME280;5729;43.570;27.826;2023-04-25T06:16:56;98206.63;;;15.16;100.00
11349;BME280;5729;43.570;27.826;2023-04-25T06:19:21;98216.78;;;15.39;100.00
11349;BME280;5729;43.570;27.826;2023-04-25T06:21:46;98217.53;;;15.70;100.00
11349;BME280;5729;43.570;27.826;2023-04-25T06:24:12;98212.13;;;15.93;100.00
11349;BME280;5729;43.570;27.826;2023-04-25T06:26:37;98207.69;;;16.26;100.00
11349;BME280;5729;43.570;27.826;2023-04-25T06:29:03;98207.44;;;16.63;100.00
11349;BME280;5729;43.570;27.826;2023-04-25T06:31:28;98204.94;;;17.12;100.00
11349;BME280;5729;43.570;27.826;2023-04-25T06:33:54;98206.69;;;17.38;100.00
11349;BME280;5729;43.570;27.826;2023-04-25T06:36:20;98198.47;;;17.58;100.00
11349;BME280;5729;43.570;27.826;2023-04-25T06:38:50;98194.00;;;17.68;100.00
11349;BME280;5729;43.570;27.826;2023-04-25T06:41:16;98189.66;;;18.03;100.00
11349;BME280;5729;43.570;27.826;2023-04-25T06:43:42;98196.81;;;18.13;100.00
11349;BME280;5729;43.570;27.826;2023-04-25T06:46:07;98195.16;;;18.32;100.00
11349;BME280;5729;43.570;27.826;2023-04-25T06:48:33;98200.03;;;18.53;100.00
11349;BME280;5729;43.570;27.826;2023-04-25T06:50:58;98195.78;;;18.52;100.00
11349;BME280;5729;43.570;27.826;2023-04-25T06:53:23;98198.50;;;18.52;100.00
11349;BME280;5729;43.570;27.826;2023-04-25T06:55:49;98194.22;;;18.22;100.00
11349;BME280;5729;43.570;27.826;2023-04-25T06:58:14;98196.66;;;18.04;100.00
11349;BME280;5729;43.570;27.826;2023-04-25T07:00:40;98199.63;;;18.09;100.00
11349;BME280;5729;43.570;27.826;2023-04-25T07:03:05;98203.19;;;18.23;100.00
11349;BME280;5729;43.570;27.826;2023-04-25T07:05:31;98198.31;;;18.30;99.21
11349;BME280;5729;43.570;27.826;2023-04-25T07:07:56;98190.69;;;17.93;100.00
11349;BME280;5729;43.570;27.826;2023-04-25T07:10:22;98191.13;;;17.91;100.00
11349;BME280;5729;43.570;27.826;2023-04-25T07:12:47;98185.41;;;18.02;96.95
11349;BME280;5729;43.570;27.826;2023-04-25T07:15:13;98184.25;;;18.32;97.96
11349;BME280;5729;43.570;27.826;2023-04-25T07:17:38;98186.69;;;18.59;93.67
11349;BME280;5729;43.570;27.826;2023-04-25T07:20:05;98190.78;;;18.79;90.70
11349;BME280;5729;43.570;27.826;2023-04-25T07:22:32;98189.34;;;18.62;90.39
11349;BME280;5729;43.570;27.826;2023-04-25T07:24:57;98181.16;;;18.62;91.40
11349;BME280;5729;43.570;27.826;2023-04-25T07:27:23;98177.19;;;18.92;94.94
11349;BME280;5729;43.570;27.826;2023-04-25T07:29:48;98182.94;;;18.81;94.23
11349;BME280;5729;43.570;27.826;2023-04-25T07:32:13;98179.75;;;18.54;96.84
11349;BME280;5729;43.570;27.826;2023-04-25T07:34:39;98180.25;;;18.36;100.00
11349;BME280;5729;43.570;27.826;2023-04-25T07:37:05;98180.94;;;18.53;100.00
11349;BME280;5729;43.570;27.826;2023-04-25T07:39:30;98179.28;;;18.43;95.19
11349;BME280;5729;43.570;27.826;2023-04-25T07:41:56;98168.97;;;18.34;96.20
11349;BME280;5729;43.570;27.826;2023-04-25T07:44:23;98169.69;;;18.51;97.26
11349;BME280;5729;43.570;27.826;2023-04-25T07:46:49;98176.88;;;19.03;96.93
11349;BME280;5729;43.570;27.826;2023-04-25T07:49:15;98159.91;;;19.49;94.11
11349;BME280;5729;43.570;27.826;2023-04-25T07:51:41;98146.56;;;19.99;92.96
11349;BME280;5729;43.570;27.826;2023-04-25T07:54:09;98154.31;;;20.13;92.67
11349;BME280;5729;43.570;27.826;2023-04-25T07:56:34;98153.41;;;19.81;92.50
11349;BME280;5729;43.570;27.826;2023-04-25T07:59:00;98142.13;;;19.92;96.80
11349;BME280;5729;43.570;27.826;2023-04-25T08:01:25;98141.00;;;20.02;97.46
11349;BME280;5729;43.570;27.826;2023-04-25T08:03:52;98138.56;;;20.17;93.11
11349;BME280;5729;43.570;27.826;2023-04-25T08:06:17;98132.03;;;20.36;98.79
11349;BME280;5729;43.570;27.826;2023-04-25T08:08:43;98135.19;;;20.35;92.29
11349;BME280;5729;43.570;27.826;2023-04-25T08:11:09;98126.88;;;20.38;93.98
11349;BME280;5729;43.570;27.826;2023-04-25T08:13:34;98136.84;;;20.32;95.24
11349;BME280;5729;43.570;27.826;2023-04-25T08:16:00;98145.00;;;20.10;99.99
11349;BME280;5729;43.570;27.826;2023-04-25T08:18:25;98131.44;;;20.19;100.00
11349;BME280;5729;43.570;27.826;2023-04-25T08:20:51;98131.75;;;21.09;100.00
11349;BME280;5729;43.570;27.826;2023-04-25T08:23:16;98148.41;;;23.70;68.48
11349;BME280;5729;43.570;27.826;2023-04-25T08:25:42;98142.28;;;25.55;53.45
11349;BME280;5729;43.570;27.826;2023-04-25T08:28:07;98137.03;;;26.79;47.59
11349;BME280;5729;43.570;27.826;2023-04-25T08:30:33;98144.13;;;27.42;44.25
11349;BME280;5729;43.570;27.826;2023-04-25T08:32:58;98150.66;;;27.39;43.68
11349;BME280;5729;43.570;27.826;2023-04-25T08:35:24;98148.31;;;26.09;45.31
11349;BME280;5729;43.570;27.826;2023-04-25T08:37:49;98148.09;;;27.36;43.00
11349;BME280;5729;43.570;27.826;2023-04-25T08:40:15;98131.25;;;26.51;43.45
11349;BME280;5729;43.570;27.826;2023-04-25T08:42:41;98150.00;;;25.16;49.77
11349;BME280;5729;43.570;27.826;2023-04-25T08:45:08;98136.75;;;27.34;43.90
11349;BME280;5729;43.570;27.826;2023-04-25T08:47:35;98143.91;;;30.04;38.60
11349;BME280;5729;43.570;27.826;2023-04-25T08:50:03;98151.38;;;30.78;35.25
11349;BME280;5729;43.570;27.826;2023-04-25T08:52:36;98157.47;;;28.35;39.17
11349;BME280;5729;43.570;27.826;2023-04-25T08:55:02;98156.50;;;28.38;39.25
11349;BME280;5729;43.570;27.826;2023-04-25T08:57:31;98149.88;;;30.25;36.45
11349;BME280;5729;43.570;27.826;2023-04-25T08:59:57;98146.31;;;31.72;34.02
11349;BME280;5729;43.570;27.826;2023-04-25T09:02:24;98159.63;;;28.79;36.30
11349;BME280;5729;43.570;27.826;2023-04-25T09:04:50;98167.03;;;26.86;40.13
11349;BME280;5729;43.570;27.826;2023-04-25T09:07:15;98159.38;;;26.49;40.98
11349;BME280;5729;43.570;27.826;2023-04-25T09:09:43;98155.97;;;27.11;40.37
11349;BME280;5729;43.570;27.826;2023-04-25T09:12:09;98148.25;;;26.44;42.27
11349;BME280;5729;43.570;27.826;2023-04-25T09:14:35;98154.38;;;25.92;42.97
11349;BME280;5729;43.570;27.826;2023-04-25T09:17:03;98163.44;;;25.43;45.72
11349;BME280;5729;43.570;27.826;2023-04-25T09:19:34;98155.25;;;24.46;48.54
11349;BME280;5729;43.570;27.826;2023-04-25T09:22:02;98156.06;;;24.13;53.44
11349;BME280;5729;43.570;27.826;2023-04-25T09:24:32;98152.78;;;23.76;54.96
11349;BME280;5729;43.570;27.826;2023-04-25T09:26:59;98153.13;;;22.49;60.63
11349;BME280;5729;43.570;27.826;2023-04-25T09:29:35;98149.94;;;22.77;65.42
11349;BME280;5729;43.570;27.826;2023-04-25T09:32:14;98138.84;;;23.05;61.29
11349;BME280;5729;43.570;27.826;2023-04-25T09:37:10;98152.97;;;22.16;69.89
11349;BME280;5729;43.570;27.826;2023-04-25T09:39:39;98142.75;;;22.53;69.18
11349;BME280;5729;43.570;27.826;2023-04-25T09:42:05;98146.72;;;22.42;68.22
11349;BME280;5729;43.570;27.826;2023-04-25T09:44:31;98141.19;;;22.88;67.73
11349;BME280;5729;43.570;27.826;2023-04-25T09:46:56;98136.63;;;22.85;66.23
11349;BME280;5729;43.570;27.826;2023-04-25T09:49:22;98137.28;;;22.43;67.51
11349;BME280;5729;43.570;27.826;2023-04-25T09:51:57;98133.88;;;22.85;67.13
11349;BME280;5729;43.570;27.826;2023-04-25T09:54:26;98138.75;;;22.81;67.45
11349;BME280;5729;43.570;27.826;2023-04-25T09:56:52;98129.47;;;22.24;72.59
11349;BME280;5729;43.570;27.826;2023-04-25T09:59:22;98128.50;;;21.81;78.56
11349;BME280;5729;43.570;27.826;2023-04-25T10:01:51;98130.25;;;22.33;72.58
11349;BME280;5729;43.570;27.826;2023-04-25T10:04:23;98129.94;;;22.68;67.74
11349;BME280;5729;43.570;27.826;2023-04-25T10:06:49;98125.22;;;23.20;65.44
11349;BME280;5729;43.570;27.826;2023-04-25T10:09:20;98125.59;;;25.29;55.13
11349;BME280;5729;43.570;27.826;2023-04-25T10:11:47;98111.41;;;27.04;47.40
11349;BME280;5729;43.570;27.826;2023-04-25T10:14:16;98109.66;;;26.81;44.31
11349;BME280;5729;43.570;27.826;2023-04-25T10:16:42;98108.44;;;26.56;45.34
11349;BME280;5729;43.570;27.826;2023-04-25T10:19:09;98100.91;;;25.20;47.55
11349;BME280;5729;43.570;27.826;2023-04-25T10:21:50;98110.19;;;24.34;50.38
11349;BME280;5729;43.570;27.826;2023-04-25T10:24:16;98108.31;;;23.45;55.51
11349;BME280;5729;43.570;27.826;2023-04-25T10:26:42;98110.13;;;23.15;60.84
11349;BME280;5729;43.570;27.826;2023-04-25T10:29:09;98093.84;;;22.93;63.52
11349;BME280;5729;43.570;27.826;2023-04-25T10:31:44;98094.50;;;22.88;66.44
11349;BME280;5729;43.570;27.826;2023-04-25T10:34:10;98097.56;;;22.90;69.24
11349;BME280;5729;43.570;27.826;2023-04-25T10:36:36;98094.81;;;22.81;68.86
11349;BME280;5729;43.570;27.826;2023-04-25T10:39:04;98091.84;;;22.33;75.14
11349;BME280;5729;43.570;27.826;2023-04-25T10:41:45;98092.28;;;22.41;79.93
11349;BME280;5729;43.570;27.826;2023-04-25T10:44:11;98088.38;;;24.45;67.88
11349;BME280;5729;43.570;27.826;2023-04-25T10:46:37;98087.53;;;26.49;53.11
11349;BME280;5729;43.570;27.826;2023-04-25T10:49:03;98076.78;;;26.11;50.47
11349;BME280;5729;43.570;27.826;2023-04-25T10:51:29;98084.91;;;25.59;52.91
11349;BME280;5729;43.570;27.826;2023-04-25T10:59:03;98073.97;;;26.05;50.68
11349;BME280;5729;43.570;27.826;2023-04-25T11:01:41;98071.94;;;27.09;48.21
11349;BME280;5729;43.570;27.826;2023-04-25T11:04:36;98067.66;;;26.25;48.27
11349;BME280;5729;43.570;27.826;2023-04-25T11:09:36;98041.91;;;24.97;54.04
11349;BME280;5729;43.570;27.826;2023-04-25T11:12:03;98069.75;;;24.84;54.98
11349;BME280;5729;43.570;27.826;2023-04-25T11:14:30;98083.31;;;23.91;57.26
11349;BME280;5729;43.570;27.826;2023-04-25T11:16:57;98063.34;;;23.81;61.71
11349;BME280;5729;43.570;27.826;2023-04-25T11:19:23;98074.03;;;24.03;58.82
11349;BME280;5729;43.570;27.826;2023-04-25T11:21:49;98060.38;;;24.08;55.29
11349;BME280;5729;43.570;27.826;2023-04-25T11:24:18;98068.22;;;24.24;53.59
11349;BME280;5729;43.570;27.826;2023-04-25T11:26:46;98070.47;;;23.87;56.04
11349;BME280;5729;43.570;27.826;2023-04-25T11:29:12;98067.75;;;23.31;57.55
11349;BME280;5729;43.570;27.826;2023-04-25T11:31:38;98072.03;;;23.32;58.64
11349;BME280;5729;43.570;27.826;2023-04-25T11:34:03;98065.16;;;23.60;55.42
11349;BME280;5729;43.570;27.826;2023-04-25T11:36:30;98059.41;;;23.97;56.40
11349;BME280;5729;43.570;27.826;2023-04-25T11:38:56;98051.97;;;24.85;54.14
11349;BME280;5729;43.570;27.826;2023-04-25T11:41:22;98056.91;;;25.46;48.75
11349;BME280;5729;43.570;27.826;2023-04-25T11:43:48;98055.31;;;24.75;49.62
11349;BME280;5729;43.570;27.826;2023-04-25T11:46:16;98047.78;;;24.90;50.90
11349;BME280;5729;43.570;27.826;2023-04-25T11:48:42;98044.75;;;24.73;51.67
11349;BME280;5729;43.570;27.826;2023-04-25T11:51:08;98058.53;;;23.91;51.48
11349;BME280;5729;43.570;27.826;2023-04-25T11:53:34;98051.91;;;23.59;52.51
11349;BME280;5729;43.570;27.826;2023-04-25T11:56:00;98043.16;;;23.60;54.54
11349;BME280;5729;43.570;27.826;2023-04-25T11:58:26;98047.53;;;24.05;52.79
11349;BME280;5729;43.570;27.826;2023-04-25T12:00:52;98036.06;;;24.45;51.24
11349;BME280;5729;43.570;27.826;2023-04-25T12:03:18;98030.16;;;24.67;51.96
11349;BME280;5729;43.570;27.826;2023-04-25T12:05:45;98031.53;;;24.92;49.08
11349;BME280;5729;43.570;27.826;2023-04-25T12:08:12;98023.59;;;24.65;48.81
11349;BME280;5729;43.570;27.826;2023-04-25T12:10:39;98027.00;;;24.30;48.88
11349;BME280;5729;43.570;27.826;2023-04-25T12:13:22;98021.28;;;24.19;50.07
11349;BME280;5729;43.570;27.826;2023-04-25T12:15:49;98013.88;;;24.10;52.84
11349;BME280;5729;43.570;27.826;2023-04-25T12:18:14;98023.94;;;24.13;50.98
11349;BME280;5729;43.570;27.826;2023-04-25T12:20:41;98019.50;;;23.77;53.14
11349;BME280;5729;43.570;27.826;2023-04-25T12:23:07;98013.63;;;23.70;52.60
11349;BME280;5729;43.570;27.826;2023-04-25T12:25:40;98015.50;;;23.31;54.66
11349;BME280;5729;43.570;27.826;2023-04-25T12:31:00;98018.19;;;22.83;55.01
11349;BME280;5729;43.570;27.826;2023-04-25T12:33:34;98016.94;;;22.42;57.35
11349;BME280;5729;43.570;27.826;2023-04-25T12:36:00;97988.47;;;21.85;62.73
11349;BME280;5729;43.570;27.826;2023-04-25T12:38:36;98002.31;;;21.90;63.53
11349;BME280;5729;43.570;27.826;2023-04-25T12:41:02;98003.69;;;21.95;65.91
11349;BME280;5729;43.570;27.826;2023-04-25T12:43:27;98002.16;;;22.30;63.30
11349;BME280;5729;43.570;27.826;2023-04-25T12:45:54;97999.94;;;22.62;60.11
11349;BME280;5729;43.570;27.826;2023-04-25T12:48:20;97987.09;;;22.68;61.45
11349;BME280;5729;43.570;27.826;2023-04-25T12:50:47;97999.25;;;22.85;59.31
11349;BME280;5729;43.570;27.826;2023-04-25T12:53:17;97995.09;;;22.48;62.50
11349;BME280;5729;43.570;27.826;2023-04-25T12:55:43;98004.59;;;22.28;59.64
11349;BME280;5729;43.570;27.826;2023-04-25T12:58:11;98004.81;;;22.58;62.58
11349;BME280;5729;43.570;27.826;2023-04-25T13:00:36;97999.81;;;22.56;84.66
11349;BME280;5729;43.570;27.826;2023-04-25T13:03:02;98004.53;;;22.46;90.88
11349;BME280;5729;43.570;27.826;2023-04-25T13:05:28;98004.00;;;22.24;96.68